sensor_id;sensor_type;location;lat;lon;timestamp;P1;durP1;ratioP1;P2;durP2;ratioP2
11488;SDS011;5801;50.804;12.638;2023-04-25T00:01:44;3.92;;;2.65;;
11488;SDS011;5801;50.804;12.638;2023-04-25T00:04:10;7.80;;;3.10;;
11488;SDS011;5801;50.804;12.638;2023-04-25T00:06:36;5.28;;;3.38;;
11488;SDS011;5801;50.804;12.638;2023-04-25T00:09:05;5.05;;;3.25;;
11488;SDS011;5801;50.804;12.638;2023-04-25T00:11:35;7.43;;;3.88;;
11488;SDS011;5801;50.804;12.638;2023-04-25T00:14:02;8.88;;;3.78;;
11488;SDS011;5801;50.804;12.638;2023-04-25T00:16:29;5.68;;;3.33;;
11488;SDS011;5801;50.804;12.638;2023-04-25T00:18:58;5.75;;;3.47;;
11488;SDS011;5801;50.804;12.638;2023-04-25T00:21:24;5.10;;;3.13;;
11488;SDS011;5801;50.804;12.638;2023-04-25T00:23:50;8.07;;;3.95;;
11488;SDS011;5801;50.804;12.638;2023-04-25T00:26:16;5.32;;;3.47;;
11488;SDS011;5801;50.804;12.638;2023-04-25T00:28:41;4.80;;;3.28;;
11488;SDS011;5801;50.804;12.638;2023-04-25T00:31:07;10.15;;;3.47;;
11488;SDS011;5801;50.804;12.638;2023-04-25T00:33:33;6.50;;;3.80;;
11488;SDS011;5801;50.804;12.638;2023-04-25T00:35:59;5.32;;;3.00;;
11488;SDS011;5801;50.804;12.638;2023-04-25T00:38:25;7.45;;;3.05;;
11488;SDS011;5801;50.804;12.638;2023-04-25T00:40:51;14.13;;;4.45;;
11488;SDS011;5801;50.804;12.638;2023-04-25T00:43:18;7.07;;;3.17;;
11488;SDS011;5801;50.804;12.638;2023-04-25T00:45:43;5.80;;;2.60;;
11488;SDS011;5801;50.804;12.638;2023-04-25T00:48:13;4.80;;;3.42;;
11488;SDS011;5801;50.804;12.638;2023-04-25T00:50:39;5.28;;;4.15;;
11488;SDS011;5801;50.804;12.638;2023-04-25T00:53:05;4.68;;;3.55;;
11488;SDS011;5801;50.804;12.638;2023-04-25T00:55:31;6.63;;;3.78;;
11488;SDS011;5801;50.804;12.638;2023-04-25T00:57:59;4.10;;;2.97;;
11488;SDS011;5801;50.804;12.638;2023-04-25T01:00:25;8.43;;;3.67;;
11488;SDS011;5801;50.804;12.638;2023-04-25T01:02:51;11.75;;;3.75;;
11488;SDS011;5801;50.804;12.638;2023-04-25T01:05:17;5.18;;;3.53;;
11488;SDS011;5801;50.804;12.638;2023-04-25T01:07:44;6.95;;;3.95;;
11488;SDS011;5801;50.804;12.638;2023-04-25T01:10:10;5.85;;;3.17;;
11488;SDS011;5801;50.804;12.638;2023-04-25T01:12:36;4.60;;;3.53;;
11488;SDS011;5801;50.804;12.638;2023-04-25T01:15:02;6.43;;;3.67;;
11488;SDS011;5801;50.804;12.638;2023-04-25T01:17:28;5.80;;;3.67;;
11488;SDS011;5801;50.804;12.638;2023-04-25T01:19:54;8.38;;;4.50;;
11488;SDS011;5801;50.804;12.638;2023-04-25T01:22:20;6.50;;;3.55;;
11488;SDS011;5801;50.804;12.638;2023-04-25T01:24:46;5.70;;;3.58;;
11488;SDS011;5801;50.804;12.638;2023-04-25T01:27:12;5.32;;;3.45;;
11488;SDS011;5801;50.804;12.638;2023-04-25T01:29:38;5.03;;;3.20;;
11488;SDS011;5801;50.804;12.638;2023-04-25T01:32:04;5.60;;;2.95;;
11488;SDS011;5801;50.804;12.638;2023-04-25T01:34:31;6.43;;;4.07;;
11488;SDS011;5801;50.804;12.638;2023-04-25T01:36:57;6.88;;;3.90;;
11488;SDS011;5801;50.804;12.638;2023-04-25T01:39:24;5.90;;;4.20;;
11488;SDS011;5801;50.804;12.638;2023-04-25T01:41:50;5.63;;;3.55;;
11488;SDS011;5801;50.804;12.638;2023-04-25T01:44:16;5.75;;;4.05;;
11488;SDS011;5801;50.804;12.638;2023-04-25T01:46:42;6.45;;;4.18;;
11488;SDS011;5801;50.804;12.638;2023-04-25T01:49:08;5.00;;;3.75;;
11488;SDS011;5801;50.804;12.638;2023-04-25T01:51:34;8.50;;;4.45;;
11488;SDS011;5801;50.804;12.638;2023-04-25T01:54:00;9.52;;;4.57;;
11488;SDS011;5801;50.804;12.638;2023-04-25T01:56:29;5.88;;;3.88;;
11488;SDS011;5801;50.804;12.638;2023-04-25T01:58:55;6.53;;;3.95;;
11488;SDS011;5801;50.804;12.638;2023-04-25T02:01:21;5.75;;;3.80;;
11488;SDS011;5801;50.804;12.638;2023-04-25T02:03:47;9.18;;;4.40;;
11488;SDS011;5801;50.804;12.638;2023-04-25T02:06:13;9.05;;;4.55;;
11488;SDS011;5801;50.804;12.638;2023-04-25T02:08:39;8.73;;;4.75;;
11488;SDS011;5801;50.804;12.638;2023-04-25T02:11:04;8.32;;;3.70;;
11488;SDS011;5801;50.804;12.638;2023-04-25T02:13:30;12.05;;;3.88;;
11488;SDS011;5801;50.804;12.638;2023-04-25T02:15:56;6.57;;;3.83;;
11488;SDS011;5801;50.804;12.638;2023-04-25T02:18:22;6.40;;;4.03;;
11488;SDS011;5801;50.804;12.638;2023-04-25T02:20:48;10.52;;;4.63;;
11488;SDS011;5801;50.804;12.638;2023-04-25T02:23:14;6.95;;;3.72;;
11488;SDS011;5801;50.804;12.638;2023-04-25T02:25:40;8.57;;;4.22;;
11488;SDS011;5801;50.804;12.638;2023-04-25T02:28:06;6.20;;;3.80;;
11488;SDS011;5801;50.804;12.638;2023-04-25T02:30:32;6.03;;;3.72;;
11488;SDS011;5801;50.804;12.638;2023-04-25T02:32:58;6.22;;;4.00;;
11488;SDS011;5801;50.804;12.638;2023-04-25T02:35:24;4.20;;;3.70;;
11488;SDS011;5801;50.804;12.638;2023-04-25T02:37:50;6.88;;;3.60;;
11488;SDS011;5801;50.804;12.638;2023-04-25T02:40:16;6.93;;;3.63;;
11488;SDS011;5801;50.804;12.638;2023-04-25T02:42:42;8.60;;;3.60;;
11488;SDS011;5801;50.804;12.638;2023-04-25T02:45:10;6.18;;;4.13;;
11488;SDS011;5801;50.804;12.638;2023-04-25T02:47:36;5.95;;;3.47;;
11488;SDS011;5801;50.804;12.638;2023-04-25T02:50:02;6.15;;;4.13;;
11488;SDS011;5801;50.804;12.638;2023-04-25T02:52:28;6.25;;;4.00;;
11488;SDS011;5801;50.804;12.638;2023-04-25T02:54:54;7.47;;;3.65;;
11488;SDS011;5801;50.804;12.638;2023-04-25T02:57:20;6.10;;;3.72;;
11488;SDS011;5801;50.804;12.638;2023-04-25T02:59:46;5.88;;;3.88;;
11488;SDS011;5801;50.804;12.638;2023-04-25T03:02:12;6.00;;;3.40;;
11488;SDS011;5801;50.804;12.638;2023-04-25T03:04:37;5.85;;;4.13;;
11488;SDS011;5801;50.804;12.638;2023-04-25T03:07:03;11.45;;;3.75;;
11488;SDS011;5801;50.804;12.638;2023-04-25T03:09:29;7.75;;;4.70;;
11488;SDS011;5801;50.804;12.638;2023-04-25T03:11:55;6.90;;;4.13;;
11488;SDS011;5801;50.804;12.638;2023-04-25T03:14:21;7.13;;;4.10;;
11488;SDS011;5801;50.804;12.638;2023-04-25T03:16:47;4.30;;;3.63;;
11488;SDS011;5801;50.804;12.638;2023-04-25T03:19:12;9.85;;;4.25;;
11488;SDS011;5801;50.804;12.638;2023-04-25T03:21:40;9.20;;;4.93;;
11488;SDS011;5801;50.804;12.638;2023-04-25T03:24:06;7.30;;;4.70;;
11488;SDS011;5801;50.804;12.638;2023-04-25T03:26:32;6.57;;;4.18;;
11488;SDS011;5801;50.804;12.638;2023-04-25T03:28:58;7.55;;;4.53;;
11488;SDS011;5801;50.804;12.638;2023-04-25T03:31:24;9.43;;;3.92;;
11488;SDS011;5801;50.804;12.638;2023-04-25T03:33:50;4.38;;;3.38;;
11488;SDS011;5801;50.804;12.638;2023-04-25T03:36:16;6.63;;;4.32;;
11488;SDS011;5801;50.804;12.638;2023-04-25T03:38:42;5.82;;;3.72;;
11488;SDS011;5801;50.804;12.638;2023-04-25T03:41:08;9.05;;;4.18;;
11488;SDS011;5801;50.804;12.638;2023-04-25T03:43:34;9.05;;;4.60;;
11488;SDS011;5801;50.804;12.638;2023-04-25T03:46:00;7.95;;;4.40;;
11488;SDS011;5801;50.804;12.638;2023-04-25T03:48:26;4.97;;;3.55;;
11488;SDS011;5801;50.804;12.638;2023-04-25T03:50:52;6.88;;;3.80;;
11488;SDS011;5801;50.804;12.638;2023-04-25T03:53:19;9.15;;;3.67;;
11488;SDS011;5801;50.804;12.638;2023-04-25T03:55:45;7.53;;;3.58;;
11488;SDS011;5801;50.804;12.638;2023-04-25T03:58:11;5.97;;;3.60;;
11488;SDS011;5801;50.804;12.638;2023-04-25T04:00:37;4.38;;;3.00;;
11488;SDS011;5801;50.804;12.638;2023-04-25T04:03:02;5.32;;;3.22;;
11488;SDS011;5801;50.804;12.638;2023-04-25T04:05:28;5.25;;;3.22;;
11488;SDS011;5801;50.804;12.638;2023-04-25T04:07:54;5.95;;;3.30;;
11488;SDS011;5801;50.804;12.638;2023-04-25T04:10:20;8.55;;;3.00;;
11488;SDS011;5801;50.804;12.638;2023-04-25T04:12:46;7.65;;;3.03;;
11488;SDS011;5801;50.804;12.638;2023-04-25T04:15:12;10.55;;;3.33;;
11488;SDS011;5801;50.804;12.638;2023-04-25T04:17:38;8.80;;;3.78;;
11488;SDS011;5801;50.804;12.638;2023-04-25T04:20:05;11.35;;;3.42;;
11488;SDS011;5801;50.804;12.638;2023-04-25T04:22:32;6.57;;;3.05;;
11488;SDS011;5801;50.804;12.638;2023-04-25T04:24:58;9.18;;;2.80;;
11488;SDS011;5801;50.804;12.638;2023-04-25T04:27:24;6.10;;;3.45;;
11488;SDS011;5801;50.804;12.638;2023-04-25T04:29:50;4.32;;;2.75;;
11488;SDS011;5801;50.804;12.638;2023-04-25T04:32:17;7.22;;;3.25;;
11488;SDS011;5801;50.804;12.638;2023-04-25T04:34:43;4.95;;;3.15;;
11488;SDS011;5801;50.804;12.638;2023-04-25T04:37:09;8.23;;;3.28;;
11488;SDS011;5801;50.804;12.638;2023-04-25T04:39:37;5.72;;;3.22;;
11488;SDS011;5801;50.804;12.638;2023-04-25T04:42:03;3.67;;;2.70;;
11488;SDS011;5801;50.804;12.638;2023-04-25T04:44:30;4.88;;;3.17;;
11488;SDS011;5801;50.804;12.638;2023-04-25T04:46:59;3.80;;;3.00;;
11488;SDS011;5801;50.804;12.638;2023-04-25T04:49:25;5.10;;;3.08;;
11488;SDS011;5801;50.804;12.638;2023-04-25T04:51:51;7.03;;;3.08;;
11488;SDS011;5801;50.804;12.638;2023-04-25T04:54:19;3.20;;;2.55;;
11488;SDS011;5801;50.804;12.638;2023-04-25T04:56:45;11.60;;;3.13;;
11488;SDS011;5801;50.804;12.638;2023-04-25T04:59:11;6.68;;;3.35;;
11488;SDS011;5801;50.804;12.638;2023-04-25T05:01:37;3.70;;;3.05;;
11488;SDS011;5801;50.804;12.638;2023-04-25T05:04:03;9.32;;;3.42;;
11488;SDS011;5801;50.804;12.638;2023-04-25T05:06:29;4.32;;;2.45;;
11488;SDS011;5801;50.804;12.638;2023-04-25T05:08:56;3.03;;;2.75;;
11488;SDS011;5801;50.804;12.638;2023-04-25T05:11:22;5.70;;;2.80;;
11488;SDS011;5801;50.804;12.638;2023-04-25T05:13:49;7.43;;;2.95;;
11488;SDS011;5801;50.804;12.638;2023-04-25T05:16:15;3.78;;;2.80;;
11488;SDS011;5801;50.804;12.638;2023-04-25T05:18:41;5.25;;;2.60;;
11488;SDS011;5801;50.804;12.638;2023-04-25T05:21:07;6.47;;;3.00;;
11488;SDS011;5801;50.804;12.638;2023-04-25T05:23:33;4.20;;;2.80;;
11488;SDS011;5801;50.804;12.638;2023-04-25T05:25:59;8.50;;;3.25;;
11488;SDS011;5801;50.804;12.638;2023-04-25T05:28:25;5.40;;;2.55;;
11488;SDS011;5801;50.804;12.638;2023-04-25T05:30:51;5.38;;;2.85;;
11488;SDS011;5801;50.804;12.638;2023-04-25T05:33:17;6.40;;;2.67;;
11488;SDS011;5801;50.804;12.638;2023-04-25T05:35:43;6.88;;;2.35;;
11488;SDS011;5801;50.804;12.638;2023-04-25T05:38:09;3.03;;;2.35;;
11488;SDS011;5801;50.804;12.638;2023-04-25T05:40:34;4.70;;;2.35;;
11488;SDS011;5801;50.804;12.638;2023-04-25T05:43:00;4.00;;;2.67;;
11488;SDS011;5801;50.804;12.638;2023-04-25T05:45:26;4.05;;;2.78;;
11488;SDS011;5801;50.804;12.638;2023-04-25T05:47:52;3.30;;;2.88;;
11488;SDS011;5801;50.804;12.638;2023-04-25T05:50:18;4.50;;;3.08;;
11488;SDS011;5801;50.804;12.638;2023-04-25T05:52:44;6.47;;;3.00;;
11488;SDS011;5801;50.804;12.638;2023-04-25T05:55:10;6.35;;;3.13;;
11488;SDS011;5801;50.804;12.638;2023-04-25T05:57:35;6.40;;;3.03;;
11488;SDS011;5801;50.804;12.638;2023-04-25T06:00:01;6.10;;;3.60;;
11488;SDS011;5801;50.804;12.638;2023-04-25T06:02:28;4.50;;;2.67;;
11488;SDS011;5801;50.804;12.638;2023-04-25T06:04:54;4.03;;;2.90;;
11488;SDS011;5801;50.804;12.638;2023-04-25T06:07:20;5.25;;;2.80;;
11488;SDS011;5801;50.804;12.638;2023-04-25T06:09:46;4.57;;;3.10;;
11488;SDS011;5801;50.804;12.638;2023-04-25T06:12:12;4.05;;;3.10;;
11488;SDS011;5801;50.804;12.638;2023-04-25T06:14:38;5.32;;;3.10;;
11488;SDS011;5801;50.804;12.638;2023-04-25T06:17:04;4.38;;;2.92;;
11488;SDS011;5801;50.804;12.638;2023-04-25T06:19:33;3.78;;;2.70;;
11488;SDS011;5801;50.804;12.638;2023-04-25T06:21:59;4.55;;;3.00;;
11488;SDS011;5801;50.804;12.638;2023-04-25T06:24:25;4.65;;;3.00;;
11488;SDS011;5801;50.804;12.638;2023-04-25T06:26:51;8.77;;;2.70;;
11488;SDS011;5801;50.804;12.638;2023-04-25T06:29:17;7.00;;;2.85;;
11488;SDS011;5801;50.804;12.638;2023-04-25T06:31:43;5.65;;;2.90;;
11488;SDS011;5801;50.804;12.638;2023-04-25T06:34:09;5.55;;;3.13;;
11488;SDS011;5801;50.804;12.638;2023-04-25T06:36:35;5.47;;;2.63;;
11488;SDS011;5801;50.804;12.638;2023-04-25T06:39:01;3.90;;;2.80;;
11488;SDS011;5801;50.804;12.638;2023-04-25T06:41:27;4.75;;;3.38;;
11488;SDS011;5801;50.804;12.638;2023-04-25T06:43:53;4.80;;;3.05;;
11488;SDS011;5801;50.804;12.638;2023-04-25T06:46:19;5.43;;;3.05;;
11488;SDS011;5801;50.804;12.638;2023-04-25T06:48:45;6.03;;;3.30;;
11488;SDS011;5801;50.804;12.638;2023-04-25T06:51:11;4.10;;;2.58;;
11488;SDS011;5801;50.804;12.638;2023-04-25T06:53:38;8.40;;;3.42;;
11488;SDS011;5801;50.804;12.638;2023-04-25T06:56:04;5.55;;;2.80;;
11488;SDS011;5801;50.804;12.638;2023-04-25T06:58:29;3.53;;;2.55;;
11488;SDS011;5801;50.804;12.638;2023-04-25T07:00:55;6.78;;;3.05;;
11488;SDS011;5801;50.804;12.638;2023-04-25T07:03:21;5.78;;;2.83;;
11488;SDS011;5801;50.804;12.638;2023-04-25T07:05:47;5.55;;;2.58;;
11488;SDS011;5801;50.804;12.638;2023-04-25T07:08:13;5.53;;;2.30;;
11488;SDS011;5801;50.804;12.638;2023-04-25T07:10:39;4.30;;;2.95;;
11488;SDS011;5801;50.804;12.638;2023-04-25T07:13:05;10.00;;;3.20;;
11488;SDS011;5801;50.804;12.638;2023-04-25T07:15:30;4.25;;;2.97;;
11488;SDS011;5801;50.804;12.638;2023-04-25T07:17:56;7.97;;;3.22;;
11488;SDS011;5801;50.804;12.638;2023-04-25T07:20:22;4.57;;;3.08;;
11488;SDS011;5801;50.804;12.638;2023-04-25T07:22:48;6.43;;;3.40;;
11488;SDS011;5801;50.804;12.638;2023-04-25T07:25:15;3.67;;;2.58;;
11488;SDS011;5801;50.804;12.638;2023-04-25T07:27:41;4.72;;;2.88;;
11488;SDS011;5801;50.804;12.638;2023-04-25T07:30:07;7.18;;;3.00;;
11488;SDS011;5801;50.804;12.638;2023-04-25T07:32:33;3.95;;;2.95;;
11488;SDS011;5801;50.804;12.638;2023-04-25T07:34:59;7.30;;;2.78;;
11488;SDS011;5801;50.804;12.638;2023-04-25T07:37:26;4.82;;;2.30;;
11488;SDS011;5801;50.804;12.638;2023-04-25T07:39:52;4.65;;;2.53;;
11488;SDS011;5801;50.804;12.638;2023-04-25T07:42:18;3.47;;;2.63;;
11488;SDS011;5801;50.804;12.638;2023-04-25T07:44:44;3.53;;;2.40;;
11488;SDS011;5801;50.804;12.638;2023-04-25T07:47:10;4.60;;;2.67;;
11488;SDS011;5801;50.804;12.638;2023-04-25T07:49:36;4.05;;;2.72;;
11488;SDS011;5801;50.804;12.638;2023-04-25T07:52:03;3.65;;;2.70;;
11488;SDS011;5801;50.804;12.638;2023-04-25T07:54:30;6.93;;;2.80;;
11488;SDS011;5801;50.804;12.638;2023-04-25T07:56:57;4.28;;;2.60;;
11488;SDS011;5801;50.804;12.638;2023-04-25T07:59:23;3.97;;;2.92;;
11488;SDS011;5801;50.804;12.638;2023-04-25T08:01:49;3.40;;;2.22;;
11488;SDS011;5801;50.804;12.638;2023-04-25T08:04:15;5.72;;;2.63;;
11488;SDS011;5801;50.804;12.638;2023-04-25T08:06:41;5.32;;;3.08;;
11488;SDS011;5801;50.804;12.638;2023-04-25T08:09:07;4.13;;;2.53;;
11488;SDS011;5801;50.804;12.638;2023-04-25T08:11:34;3.03;;;2.13;;
11488;SDS011;5801;50.804;12.638;2023-04-25T08:14:00;4.88;;;2.75;;
11488;SDS011;5801;50.804;12.638;2023-04-25T08:16:26;6.82;;;2.88;;
11488;SDS011;5801;50.804;12.638;2023-04-25T08:18:52;4.88;;;2.50;;
11488;SDS011;5801;50.804;12.638;2023-04-25T08:21:18;5.07;;;3.53;;
11488;SDS011;5801;50.804;12.638;2023-04-25T08:23:44;4.68;;;2.90;;
11488;SDS011;5801;50.804;12.638;2023-04-25T08:26:10;4.85;;;3.22;;
11488;SDS011;5801;50.804;12.638;2023-04-25T08:28:36;5.00;;;3.10;;
11488;SDS011;5801;50.804;12.638;2023-04-25T08:31:02;4.85;;;2.50;;
11488;SDS011;5801;50.804;12.638;2023-04-25T08:33:28;6.97;;;2.97;;
11488;SDS011;5801;50.804;12.638;2023-04-25T08:35:54;2.80;;;2.47;;
11488;SDS011;5801;50.804;12.638;2023-04-25T08:38:20;5.07;;;2.85;;
11488;SDS011;5801;50.804;12.638;2023-04-25T08:40:48;5.47;;;2.65;;
11488;SDS011;5801;50.804;12.638;2023-04-25T08:43:15;4.80;;;2.30;;
11488;SDS011;5801;50.804;12.638;2023-04-25T08:45:44;4.90;;;2.92;;
11488;SDS011;5801;50.804;12.638;2023-04-25T08:48:11;3.97;;;2.65;;
11488;SDS011;5801;50.804;12.638;2023-04-25T08:50:41;3.70;;;2.28;;
11488;SDS011;5801;50.804;12.638;2023-04-25T08:53:17;4.40;;;2.83;;
11488;SDS011;5801;50.804;12.638;2023-04-25T08:55:55;3.72;;;2.28;;
11488;SDS011;5801;50.804;12.638;2023-04-25T08:58:22;6.38;;;2.63;;
11488;SDS011;5801;50.804;12.638;2023-04-25T09:00:49;5.88;;;3.00;;
11488;SDS011;5801;50.804;12.638;2023-04-25T09:03:16;5.13;;;2.03;;
11488;SDS011;5801;50.804;12.638;2023-04-25T09:05:43;3.70;;;2.42;;
11488;SDS011;5801;50.804;12.638;2023-04-25T09:08:09;4.68;;;2.90;;
11488;SDS011;5801;50.804;12.638;2023-04-25T09:10:35;2.63;;;1.83;;
11488;SDS011;5801;50.804;12.638;2023-04-25T09:13:05;3.97;;;1.45;;
11488;SDS011;5801;50.804;12.638;2023-04-25T09:15:33;2.10;;;1.90;;
11488;SDS011;5801;50.804;12.638;2023-04-25T09:18:11;1.98;;;1.83;;
11488;SDS011;5801;50.804;12.638;2023-04-25T09:20:41;5.18;;;1.55;;
11488;SDS011;5801;50.804;12.638;2023-04-25T09:23:08;5.38;;;2.55;;
11488;SDS011;5801;50.804;12.638;2023-04-25T09:25:34;3.72;;;2.10;;
11488;SDS011;5801;50.804;12.638;2023-04-25T09:28:04;2.33;;;2.13;;
11488;SDS011;5801;50.804;12.638;2023-04-25T09:30:31;4.05;;;2.35;;
11488;SDS011;5801;50.804;12.638;2023-04-25T09:32:57;3.47;;;2.60;;
11488;SDS011;5801;50.804;12.638;2023-04-25T09:35:30;3.38;;;2.70;;
11488;SDS011;5801;50.804;12.638;2023-04-25T09:38:07;5.80;;;3.05;;
11488;SDS011;5801;50.804;12.638;2023-04-25T09:40:41;7.57;;;3.13;;
11488;SDS011;5801;50.804;12.638;2023-04-25T09:43:25;8.30;;;3.13;;
11488;SDS011;5801;50.804;12.638;2023-04-25T09:45:53;5.20;;;3.20;;
11488;SDS011;5801;50.804;12.638;2023-04-25T09:48:22;9.40;;;3.30;;
11488;SDS011;5801;50.804;12.638;2023-04-25T09:51:03;5.95;;;3.38;;
11488;SDS011;5801;50.804;12.638;2023-04-25T09:53:30;5.47;;;3.33;;
11488;SDS011;5801;50.804;12.638;2023-04-25T09:55:57;5.72;;;3.00;;
11488;SDS011;5801;50.804;12.638;2023-04-25T09:58:25;5.70;;;2.78;;
11488;SDS011;5801;50.804;12.638;2023-04-25T10:00:51;6.13;;;3.05;;
11488;SDS011;5801;50.804;12.638;2023-04-25T10:03:17;4.97;;;2.75;;
11488;SDS011;5801;50.804;12.638;2023-04-25T10:05:43;3.67;;;2.20;;
11488;SDS011;5801;50.804;12.638;2023-04-25T10:08:11;4.60;;;2.97;;
11488;SDS011;5801;50.804;12.638;2023-04-25T10:10:37;3.20;;;2.55;;
11488;SDS011;5801;50.804;12.638;2023-04-25T10:13:05;5.45;;;3.25;;
11488;SDS011;5801;50.804;12.638;2023-04-25T10:15:34;9.63;;;4.10;;
11488;SDS011;5801;50.804;12.638;2023-04-25T10:18:01;5.15;;;3.50;;
11488;SDS011;5801;50.804;12.638;2023-04-25T10:20:27;4.70;;;3.05;;
11488;SDS011;5801;50.804;12.638;2023-04-25T10:22:54;5.82;;;3.08;;
11488;SDS011;5801;50.804;12.638;2023-04-25T10:25:23;4.80;;;3.28;;
11488;SDS011;5801;50.804;12.638;2023-04-25T10:27:52;8.20;;;3.63;;
11488;SDS011;5801;50.804;12.638;2023-04-25T10:30:19;4.22;;;3.08;;
11488;SDS011;5801;50.804;12.638;2023-04-25T10:32:45;7.28;;;3.67;;
11488;SDS011;5801;50.804;12.638;2023-04-25T10:37:56;6.95;;;3.85;;
11488;SDS011;5801;50.804;12.638;2023-04-25T10:40:23;4.82;;;3.38;;
11488;SDS011;5801;50.804;12.638;2023-04-25T10:42:49;8.90;;;3.75;;
11488;SDS011;5801;50.804;12.638;2023-04-25T10:45:17;4.10;;;3.10;;
11488;SDS011;5801;50.804;12.638;2023-04-25T10:47:43;5.13;;;3.28;;
11488;SDS011;5801;50.804;12.638;2023-04-25T10:50:10;6.30;;;3.25;;
11488;SDS011;5801;50.804;12.638;2023-04-25T10:52:38;5.63;;;3.72;;
11488;SDS011;5801;50.804;12.638;2023-04-25T10:55:05;5.63;;;3.20;;
11488;SDS011;5801;50.804;12.638;2023-04-25T11:02:49;6.25;;;3.55;;
11488;SDS011;5801;50.804;12.638;2023-04-25T11:05:20;6.72;;;3.88;;
11488;SDS011;5801;50.804;12.638;2023-04-25T11:08:06;5.28;;;3.55;;
11488;SDS011;5801;50.804;12.638;2023-04-25T11:10:36;8.65;;;3.97;;
11488;SDS011;5801;50.804;12.638;2023-04-25T11:13:02;6.78;;;4.03;;
11488;SDS011;5801;50.804;12.638;2023-04-25T11:15:28;6.38;;;4.30;;
11488;SDS011;5801;50.804;12.638;2023-04-25T11:17:54;4.90;;;3.72;;
11488;SDS011;5801;50.804;12.638;2023-04-25T11:20:21;6.95;;;4.35;;
11488;SDS011;5801;50.804;12.638;2023-04-25T11:22:47;12.05;;;4.32;;
11488;SDS011;5801;50.804;12.638;2023-04-25T11:25:14;10.75;;;4.07;;
11488;SDS011;5801;50.804;12.638;2023-04-25T11:27:50;7.65;;;4.07;;
11488;SDS011;5801;50.804;12.638;2023-04-25T11:30:21;5.07;;;3.85;;
11488;SDS011;5801;50.804;12.638;2023-04-25T11:32:47;9.85;;;3.90;;
11488;SDS011;5801;50.804;12.638;2023-04-25T11:35:13;9.15;;;3.55;;
11488;SDS011;5801;50.804;12.638;2023-04-25T11:37:40;8.02;;;3.88;;
11488;SDS011;5801;50.804;12.638;2023-04-25T11:40:06;6.70;;;4.13;;
11488;SDS011;5801;50.804;12.638;2023-04-25T11:42:36;7.70;;;4.07;;
11488;SDS011;5801;50.804;12.638;2023-04-25T11:45:03;6.68;;;4.30;;
11488;SDS011;5801;50.804;12.638;2023-04-25T11:47:30;9.80;;;3.83;;
11488;SDS011;5801;50.804;12.638;2023-04-25T11:50:00;6.00;;;3.78;;
11488;SDS011;5801;50.804;12.638;2023-04-25T11:52:42;5.47;;;2.80;;
11488;SDS011;5801;50.804;12.638;2023-04-25T11:55:09;3.20;;;2.42;;
11488;SDS011;5801;50.804;12.638;2023-04-25T11:57:43;6.43;;;2.80;;
11488;SDS011;5801;50.804;12.638;2023-04-25T12:00:14;4.40;;;2.33;;
11488;SDS011;5801;50.804;12.638;2023-04-25T12:02:46;6.47;;;2.72;;
11488;SDS011;5801;50.804;12.638;2023-04-25T12:05:13;4.47;;;3.28;;
11488;SDS011;5801;50.804;12.638;2023-04-25T12:07:42;10.60;;;4.03;;
11488;SDS011;5801;50.804;12.638;2023-04-25T12:10:10;4.72;;;3.33;;
11488;SDS011;5801;50.804;12.638;2023-04-25T12:12:38;5.97;;;3.60;;
11488;SDS011;5801;50.804;12.638;2023-04-25T12:15:13;7.30;;;3.15;;
11488;SDS011;5801;50.804;12.638;2023-04-25T12:17:46;7.35;;;3.53;;
11488;SDS011;5801;50.804;12.638;2023-04-25T12:20:14;11.25;;;3.72;;
11488;SDS011;5801;50.804;12.638;2023-04-25T12:22:44;8.32;;;3.25;;
11488;SDS011;5801;50.804;12.638;2023-04-25T12:25:11;12.55;;;3.58;;
11488;SDS011;5801;50.804;12.638;2023-04-25T12:27:37;12.27;;;3.30;;
11488;SDS011;5801;50.804;12.638;2023-04-25T12:30:07;7.80;;;3.80;;
11488;SDS011;5801;50.804;12.638;2023-04-25T12:32:33;3.78;;;2.65;;
11488;SDS011;5801;50.804;12.638;2023-04-25T12:34:59;3.95;;;2.90;;
11488;SDS011;5801;50.804;12.638;2023-04-25T12:37:25;6.63;;;2.67;;
11488;SDS011;5801;50.804;12.638;2023-04-25T12:39:51;5.60;;;2.65;;
11488;SDS011;5801;50.804;12.638;2023-04-25T12:42:17;6.00;;;2.63;;
11488;SDS011;5801;50.804;12.638;2023-04-25T12:44:43;7.03;;;2.80;;
11488;SDS011;5801;50.804;12.638;2023-04-25T12:47:09;12.73;;;2.65;;
11488;SDS011;5801;50.804;12.638;2023-04-25T12:49:35;6.05;;;2.15;;
11488;SDS011;5801;50.804;12.638;2023-04-25T12:52:00;9.02;;;2.55;;
11488;SDS011;5801;50.804;12.638;2023-04-25T12:54:26;4.57;;;2.63;;
11488;SDS011;5801;50.804;12.638;2023-04-25T12:56:52;4.22;;;2.40;;
11488;SDS011;5801;50.804;12.638;2023-04-25T12:59:18;4.63;;;2.72;;
11488;SDS011;5801;50.804;12.638;2023-04-25T13:01:45;6.63;;;2.20;;
11488;SDS011;5801;50.804;12.638;2023-04-25T13:04:11;6.82;;;2.25;;
11488;SDS011;5801;50.804;12.638;2023-04-25T13:06:37;3.15;;;1.90;;
11488;SDS011;5801;50.804;12.638;2023-04-25T13:09:03;3.30;;;2.00;;
11488;SDS011;5801;50.804;12.638;2023-04-25T13:11:29;7.00;;;2.35;;
11488;SDS011;5801;50.804;12.638;2023-04-25T13:13:55;2.08;;;1.83;;
11488;SDS011;5801;50.804;12.638;2023-04-25T13:16:21;5.40;;;2.03;;
11488;SDS011;5801;50.804;12.638;2023-04-25T13:18:47;2.55;;;2.30;;
11488;SDS011;5801;50.804;12.638;2023-04-25T13:21:13;9.75;;;2.15;;
11488;SDS011;5801;50.804;12.638;2023-04-25T13:23:39;6.00;;;2.22;;
11488;SDS011;5801;50.804;12.638;2023-04-25T13:26:07;2.42;;;1.60;;
11488;SDS011;5801;50.804;12.638;2023-04-25T13:28:33;2.13;;;1.85;;
11488;SDS011;5801;50.804;12.638;2023-04-25T13:30:59;5.60;;;2.47;;
11488;SDS011;5801;50.804;12.638;2023-04-25T13:33:25;7.10;;;2.55;;
11488;SDS011;5801;50.804;12.638;2023-04-25T13:35:51;9.07;;;2.63;;
11488;SDS011;5801;50.804;12.638;2023-04-25T13:38:21;3.53;;;2.03;;
11488;SDS011;5801;50.804;12.638;2023-04-25T13:40:47;6.13;;;2.05;;
11488;SDS011;5801;50.804;12.638;2023-04-25T13:43:13;4.25;;;2.63;;
11488;SDS011;5801;50.804;12.638;2023-04-25T13:45:39;6.28;;;1.95;;
11488;SDS011;5801;50.804;12.638;2023-04-25T13:48:06;3.83;;;1.85;;
11488;SDS011;5801;50.804;12.638;2023-04-25T13:50:32;2.78;;;2.05;;
11488;SDS011;5801;50.804;12.638;2023-04-25T13:52:58;4.95;;;2.28;;
11488;SDS011;5801;50.804;12.638;2023-04-25T13:55:23;3.88;;;2.30;;
11488;SDS011;5801;50.804;12.638;2023-04-25T13:57:49;3.63;;;2.53;;
11488;SDS011;5801;50.804;12.638;2023-04-25T14:00:15;8.73;;;2.92;;
11488;SDS011;5801;50.804;12.638;2023-04-25T14:02:41;2.60;;;1.63;;
11488;SDS011;5801;50.804;12.638;2023-04-25T14:05:07;5.57;;;2.63;;
11488;SDS011;5801;50.804;12.638;2023-04-25T14:07:34;3.90;;;2.38;;
11488;SDS011;5801;50.804;12.638;2023-04-25T14:10:00;6.05;;;2.70;;
11488;SDS011;5801;50.804;12.638;2023-04-25T14:12:26;9.15;;;3.08;;
11488;SDS011;5801;50.804;12.638;2023-04-25T14:14:52;8.60;;;2.55;;
11488;SDS011;5801;50.804;12.638;2023-04-25T14:17:19;3.08;;;2.05;;
11488;SDS011;5801;50.804;12.638;2023-04-25T14:19:45;8.65;;;2.35;;
11488;SDS011;5801;50.804;12.638;2023-04-25T14:22:12;3.65;;;2.40;;
11488;SDS011;5801;50.804;12.638;2023-04-25T14:24:39;6.68;;;2.08;;
11488;SDS011;5801;50.804;12.638;2023-04-25T14:27:05;3.42;;;1.67;;
11488;SDS011;5801;50.804;12.638;2023-04-25T14:29:31;3.50;;;1.70;;
11488;SDS011;5801;50.804;12.638;2023-04-25T14:31:57;5.20;;;1.77;;
11488;SDS011;5801;50.804;12.638;2023-04-25T14:34:24;2.70;;;1.33;;
11488;SDS011;5801;50.804;12.638;2023-04-25T14:36:50;3.00;;;1.50;;
11488;SDS011;5801;50.804;12.638;2023-04-25T14:39:16;4.30;;;1.70;;
11488;SDS011;5801;50.804;12.638;2023-04-25T14:41:42;11.60;;;1.85;;
11488;SDS011;5801;50.804;12.638;2023-04-25T14:44:08;4.00;;;1.83;;
11488;SDS011;5801;50.804;12.638;2023-04-25T14:46:34;3.83;;;1.27;;
11488;SDS011;5801;50.804;12.638;2023-04-25T14:49:00;5.28;;;1.63;;
11488;SDS011;5801;50.804;12.638;2023-04-25T14:51:27;5.35;;;2.05;;
11488;SDS011;5801;50.804;12.638;2023-04-25T14:53:53;9.23;;;2.03;;